Time;durP1;ratioP1;P1;durP2;ratioP2;P2;SDS_P1;SDS_P2;PMS_P1;PMS_P2;Temp;Humidity;BMP_temperature;BMP_pressure;BME280_temperature;BME280_humidity;BME280_pressure;Samples;Min_cycle;Max_cycle;Signal;HPM_P1;HPM_P2
2023/02/18 00:00:16;;;;;;;6.13;2.78;;;21.50;44.00;;;;;;5068397;28;20056;-49
2023/02/18 00:02:42;;;;;;;4.53;2.70;;;21.50;44.00;;;;;;5060156;28;20021;-51
2023/02/18 00:05:08;;;;;;;5.78;2.60;;;21.50;44.00;;;;;;5061516;28;20029;-52
2023/02/18 00:07:36;;;;;;;5.90;2.97;;;21.50;44.00;;;;;;5064093;28;20117;-54
2023/02/18 00:10:03;;;;;;;6.07;2.67;;;21.50;44.00;;;;;;5064361;28;20029;-52
2023/02/18 00:12:30;;;;;;;7.35;3.30;;;21.50;44.00;;;;;;5063284;28;20060;-50
2023/02/18 00:14:56;;;;;;;6.93;3.53;;;21.50;44.10;;;;;;5061251;28;20025;-53
2023/02/18 00:17:21;;;;;;;5.35;2.83;;;21.50;44.10;;;;;;5059681;28;20488;-52
2023/02/18 00:19:48;;;;;;;7.00;3.47;;;21.50;44.10;;;;;;5064379;28;20029;-49
2023/02/18 00:22:13;;;;;;;6.63;3.50;;;21.40;44.10;;;;;;5060102;28;20033;-51
2023/02/18 00:24:39;;;;;;;7.70;3.78;;;21.50;44.20;;;;;;5045752;28;20039;-52
2023/02/18 00:27:05;;;;;;;9.30;4.10;;;21.40;44.10;;;;;;5065409;28;20020;-50
2023/02/18 00:29:31;;;;;;;8.70;3.95;;;21.40;44.10;;;;;;5043308;28;20033;-51
2023/02/18 00:31:57;;;;;;;8.68;4.28;;;21.40;44.10;;;;;;5047694;28;20036;-53
2023/02/18 00:34:23;;;;;;;8.27;4.25;;;21.40;44.20;;;;;;5063753;28;20075;-55
2023/02/18 00:36:49;;;;;;;8.75;4.10;;;21.40;44.20;;;;;;5064662;28;20052;-51
2023/02/18 00:39:15;;;;;;;7.03;4.25;;;21.40;44.20;;;;;;5063332;28;20352;-52
2023/02/18 00:41:42;;;;;;;9.13;4.47;;;21.40;44.20;;;;;;5059784;28;20025;-53
2023/02/18 00:44:08;;;;;;;9.77;4.57;;;21.40;44.20;;;;;;5061370;28;20085;-53
2023/02/18 00:46:35;;;;;;;12.68;5.15;;;21.40;44.20;;;;;;5042284;28;20021;-51
2023/02/18 00:49:01;;;;;;;8.55;4.28;;;21.40;44.30;;;;;;5062003;28;20423;-53
2023/02/18 00:51:27;;;;;;;8.88;4.68;;;21.40;44.30;;;;;;5063304;28;20029;-52
2023/02/18 00:53:53;;;;;;;7.82;4.57;;;21.40;44.30;;;;;;5064749;28;20123;-50
2023/02/18 00:56:20;;;;;;;9.65;4.95;;;21.40;44.30;;;;;;5043657;28;20097;-48
2023/02/18 00:58:46;;;;;;;8.15;4.68;;;21.30;44.30;;;;;;5064811;28;20047;-52
2023/02/18 01:01:12;;;;;;;8.80;4.70;;;21.30;44.90;;;;;;5058881;28;20029;-52
2023/02/18 01:03:41;;;;;;;8.52;4.70;;;21.30;44.30;;;;;;5062464;28;20065;-51
2023/02/18 01:06:08;;;;;;;8.18;4.45;;;21.30;44.30;;;;;;5055487;28;20035;-53
2023/02/18 01:08:35;;;;;;;8.38;4.35;;;21.30;44.30;;;;;;5045300;28;20368;-53
2023/02/18 01:11:02;;;;;;;9.52;4.80;;;21.30;44.40;;;;;;5058508;28;20029;-51
2023/02/18 01:13:28;;;;;;;7.40;4.00;;;21.30;44.40;;;;;;5047601;28;20123;-51
2023/02/18 01:15:54;;;;;;;7.65;4.95;;;21.30;44.40;;;;;;5057853;28;20404;-53
2023/02/18 01:18:20;;;;;;;8.00;4.32;;;21.30;44.40;;;;;;5060356;28;20158;-53
2023/02/18 01:20:47;;;;;;;8.43;3.88;;;21.30;44.40;;;;;;5043311;28;20025;-48
2023/02/18 01:23:14;;;;;;;8.63;4.50;;;21.30;44.40;;;;;;5064331;28;20028;-51
2023/02/18 01:25:40;;;;;;;7.47;4.40;;;21.30;44.50;;;;;;5065129;28;20036;-51
2023/02/18 01:28:08;;;;;;;7.60;4.22;;;21.30;44.50;;;;;;5063040;28;20024;-53
2023/02/18 01:30:34;;;;;;;7.20;4.22;;;21.20;44.40;;;;;;5057416;28;20024;-52
2023/02/18 01:33:00;;;;;;;10.10;5.10;;;21.20;44.50;;;;;;5059444;28;20036;-48
2023/02/18 01:35:26;;;;;;;9.15;4.00;;;21.20;44.50;;;;;;5057592;28;20028;-52
2023/02/18 01:37:54;;;;;;;6.28;4.07;;;21.20;44.50;;;;;;5044807;28;20039;-53
2023/02/18 01:40:23;;;;;;;7.75;4.25;;;21.20;44.50;;;;;;5037480;28;20507;-54
2023/02/18 01:42:49;;;;;;;6.88;4.03;;;21.20;44.50;;;;;;5063422;28;20448;-51
2023/02/18 01:45:28;;;;;;;8.25;4.60;;;21.20;44.50;;;;;;5043861;28;20031;-50
2023/02/18 01:47:54;;;;;;;6.70;4.25;;;21.20;44.50;;;;;;5056824;28;20025;-52
2023/02/18 01:50:20;;;;;;;6.10;4.15;;;21.20;44.50;;;;;;5061889;28;20020;-51
2023/02/18 01:52:47;;;;;;;7.18;4.20;;;21.20;44.50;;;;;;5060260;28;20177;-53
2023/02/18 01:55:13;;;;;;;6.70;4.18;;;21.20;44.50;;;;;;5065841;28;20111;-52
2023/02/18 01:57:39;;;;;;;7.88;4.53;;;21.20;44.60;;;;;;5062773;28;20029;-49
2023/02/18 02:00:12;;;;;;;6.25;4.22;;;21.20;44.50;;;;;;5044417;28;20034;-53
2023/02/18 02:02:45;;;;;;;4.38;3.63;;;21.20;44.50;;;;;;5038173;28;20025;-49
2023/02/18 02:05:11;;;;;;;7.53;4.35;;;21.10;44.50;;;;;;5061085;28;20452;-47
2023/02/18 02:07:39;;;;;;;8.20;4.22;;;21.20;44.60;;;;;;5058807;28;20029;-54
2023/02/18 02:10:06;;;;;;;6.60;4.30;;;21.20;44.60;;;;;;5057838;28;20025;-52
2023/02/18 02:12:40;;;;;;;6.53;4.22;;;21.10;44.50;;;;;;5039270;28;20066;-54
2023/02/18 02:15:18;;;;;;;7.82;4.07;;;21.10;44.60;;;;;;5042932;28;20025;-53
2023/02/18 02:18:20;;;;;;;5.60;3.75;;;21.10;44.60;;;;;;5058720;28;20170;-54
2023/02/18 02:21:16;;;;;;;7.30;4.85;;;21.10;44.60;;;;;;5061071;28;20024;-53
2023/02/18 02:24:07;;;;;;;6.90;4.40;;;21.10;44.60;;;;;;5056921;28;20036;-51
2023/02/18 02:26:48;;;;;;;7.60;4.75;;;21.10;44.60;;;;;;5042732;28;20032;-48
2023/02/18 02:29:47;;;;;;;6.32;4.55;;;21.10;44.70;;;;;;5059059;28;20039;-53
2023/02/18 02:32:37;;;;;;;10.85;5.15;;;21.10;44.80;;;;;;5058992;28;20127;-52
2023/02/18 02:35:49;;;;;;;6.45;4.78;;;21.10;44.70;;;;;;5056953;28;20040;-51
2023/02/18 02:38:42;;;;;;;8.98;5.40;;;21.00;44.70;;;;;;4953475;28;20081;-53
2023/02/18 02:41:34;;;;;;;7.40;5.47;;;21.00;44.80;;;;;;5042746;28;20053;-50
2023/02/18 02:44:06;;;;;;;7.45;4.90;;;21.10;44.90;;;;;;5014573;28;20056;-53
2023/02/18 02:46:44;;;;;;;7.25;5.28;;;21.00;44.90;;;;;;5042749;28;20452;-52
2023/02/18 02:49:53;;;;;;;8.18;5.68;;;21.00;44.90;;;;;;5041587;28;20115;-50
2023/02/18 02:52:29;;;;;;;9.52;5.38;;;21.00;45.00;;;;;;5044180;28;20059;-54
2023/02/18 02:54:54;;;;;;;9.13;5.43;;;21.00;45.00;;;;;;5036919;28;20036;-54
2023/02/18 02:57:23;;;;;;;9.80;5.75;;;21.00;45.10;;;;;;5039418;28;20356;-52
2023/02/18 03:00:45;;;;;;;8.57;4.82;;;21.00;45.20;;;;;;5051015;28;20040;-52
2023/02/18 03:03:24;;;;;;;9.50;5.72;;;21.00;45.30;;;;;;5065935;28;20448;-51
2023/02/18 03:06:05;;;;;;;10.23;6.35;;;21.00;45.30;;;;;;5042158;28;20032;-53
2023/02/18 03:08:46;;;;;;;9.73;6.30;;;21.00;45.30;;;;;;5039793;28;20055;-53
2023/02/18 03:11:16;;;;;;;8.77;5.75;;;21.00;45.40;;;;;;5038890;28;20107;-53
2023/02/18 03:14:19;;;;;;;9.43;6.00;;;21.00;45.40;;;;;;5040903;28;20137;-52
2023/02/18 03:16:57;;;;;;;9.30;5.82;;;21.00;45.40;;;;;;5043115;28;20052;-52
2023/02/18 03:20:09;;;;;;;9.05;6.13;;;21.00;45.50;;;;;;5043002;28;20021;-53
2023/02/18 03:22:40;;;;;;;10.48;6.43;;;21.00;45.50;;;;;;4964806;28;20417;-51
2023/02/18 03:25:07;;;;;;;9.02;6.18;;;21.00;45.60;;;;;;5032214;28;20124;-49
2023/02/18 03:27:35;;;;;;;8.65;5.90;;;21.00;45.60;;;;;;5056987;28;20033;-51
2023/02/18 03:30:09;;;;;;;8.35;5.93;;;21.00;45.70;;;;;;5058182;28;20032;-52
2023/02/18 03:32:36;;;;;;;8.48;5.97;;;21.00;45.70;;;;;;5058316;28;20047;-52
2023/02/18 03:35:08;;;;;;;8.25;5.93;;;20.90;45.70;;;;;;5057612;28;20044;-52
2023/02/18 03:37:39;;;;;;;10.13;5.75;;;20.90;45.70;;;;;;5037012;28;20060;-50
2023/02/18 03:40:06;;;;;;;8.00;6.00;;;20.90;45.80;;;;;;5042681;28;20032;-53
2023/02/18 03:42:32;;;;;;;8.73;5.60;;;20.90;45.90;;;;;;5055628;28;20422;-53
2023/02/18 03:44:58;;;;;;;6.78;5.40;;;20.90;45.90;;;;;;5060524;28;20021;-46
2023/02/18 03:47:24;;;;;;;8.48;5.50;;;20.90;45.90;;;;;;5060616;28;20060;-51
2023/02/18 03:49:50;;;;;;;7.22;5.35;;;20.90;45.90;;;;;;5062107;28;20048;-48
2023/02/18 03:52:16;;;;;;;7.18;5.10;;;20.90;46.00;;;;;;5056010;28;20128;-53
2023/02/18 03:54:42;;;;;;;6.00;4.80;;;20.90;46.00;;;;;;5061183;28;20047;-51
2023/02/18 03:57:08;;;;;;;7.10;5.00;;;20.90;46.00;;;;;;5046301;28;20086;-49
2023/02/18 03:59:34;;;;;;;5.22;4.32;;;20.90;46.00;;;;;;5062795;28;20033;-50
2023/02/18 04:02:01;;;;;;;4.70;3.83;;;20.90;46.10;;;;;;5060223;28;20060;-48
2023/02/18 04:04:27;;;;;;;4.82;3.83;;;20.90;46.10;;;;;;5061410;28;20087;-53
2023/02/18 04:06:53;;;;;;;6.05;4.05;;;20.90;46.10;;;;;;5058161;28;20025;-54
2023/02/18 04:09:18;;;;;;;4.65;3.83;;;20.90;46.20;;;;;;5067165;28;20448;-51
2023/02/18 04:11:44;;;;;;;7.25;3.70;;;20.90;46.20;;;;;;5064880;28;20021;-46
2023/02/18 04:14:13;;;;;;;5.47;3.38;;;20.90;46.20;;;;;;5062696;28;20025;-48
2023/02/18 04:16:39;;;;;;;4.65;3.47;;;20.90;46.20;;;;;;5061679;28;20037;-46
2023/02/18 04:19:05;;;;;;;3.40;2.90;;;20.90;46.20;;;;;;5063426;28;20078;-47
2023/02/18 04:21:31;;;;;;;3.40;2.75;;;20.90;46.20;;;;;;5058943;28;20061;-48
2023/02/18 04:23:57;;;;;;;4.03;2.78;;;20.90;46.20;;;;;;5062687;28;20441;-46
2023/02/18 04:26:23;;;;;;;4.07;2.90;;;20.80;46.30;;;;;;5063054;28;20028;-49
2023/02/18 04:28:48;;;;;;;3.75;2.70;;;20.90;46.20;;;;;;5063927;28;20033;-50
2023/02/18 04:31:14;;;;;;;2.88;2.40;;;20.90;46.30;;;;;;5061414;28;20024;-48
2023/02/18 04:33:40;;;;;;;4.22;3.03;;;20.90;46.40;;;;;;5066379;28;20040;-46
2023/02/18 04:36:06;;;;;;;3.92;2.70;;;20.80;46.40;;;;;;5062015;28;20021;-47
2023/02/18 04:38:32;;;;;;;4.05;2.95;;;20.90;46.40;;;;;;5066654;28;20029;-47
2023/02/18 04:40:58;;;;;;;3.25;2.63;;;20.90;46.50;;;;;;5065685;28;20352;-49
2023/02/18 04:43:24;;;;;;;3.10;2.63;;;20.80;46.50;;;;;;5061033;28;20348;-47
2023/02/18 04:45:50;;;;;;;3.30;2.50;;;20.80;46.50;;;;;;5059861;28;20029;-49
2023/02/18 04:48:15;;;;;;;3.25;2.63;;;20.80;46.50;;;;;;5061085;28;22012;-53
2023/02/18 04:50:43;;;;;;;2.85;2.22;;;20.80;46.50;;;;;;5061184;28;20040;-55
2023/02/18 04:53:09;;;;;;;3.22;2.67;;;20.90;46.60;;;;;;5063144;28;20040;-49
2023/02/18 04:55:34;;;;;;;2.75;2.35;;;20.80;46.50;;;;;;5065901;28;20028;-48
2023/02/18 04:58:00;;;;;;;3.10;2.30;;;20.80;46.60;;;;;;5063613;28;20449;-49
2023/02/18 05:00:28;;;;;;;2.80;2.20;;;20.80;46.60;;;;;;5058667;28;20032;-50
2023/02/18 05:02:54;;;;;;;2.72;1.77;;;20.80;46.60;;;;;;5058094;28;20444;-48
2023/02/18 05:05:19;;;;;;;3.10;1.90;;;20.80;46.60;;;;;;5058709;28;20342;-51
2023/02/18 05:07:45;;;;;;;3.35;1.95;;;20.80;46.70;;;;;;5058395;28;20036;-47
2023/02/18 05:10:15;;;;;;;2.17;1.80;;;20.80;46.70;;;;;;5059613;28;20024;-51
2023/02/18 05:12:41;;;;;;;2.20;1.80;;;20.80;46.70;;;;;;5063535;28;20071;-52
2023/02/18 05:15:08;;;;;;;1.98;1.60;;;20.80;46.70;;;;;;5061125;28;20565;-53
2023/02/18 05:17:34;;;;;;;2.00;1.80;;;20.80;46.70;;;;;;5064543;28;20045;-48
2023/02/18 05:20:00;;;;;;;1.60;1.45;;;20.80;46.70;;;;;;5061502;28;20024;-50
2023/02/18 05:22:26;;;;;;;2.03;1.70;;;20.80;46.80;;;;;;5062326;28;20402;-50
2023/02/18 05:24:51;;;;;;;2.10;1.70;;;20.70;46.80;;;;;;5064737;28;20016;-51
2023/02/18 05:27:17;;;;;;;2.35;1.85;;;20.80;46.80;;;;;;5061993;28;20020;-50
2023/02/18 05:29:43;;;;;;;1.83;1.50;;;20.80;46.80;;;;;;5066865;28;20039;-50
2023/02/18 05:32:09;;;;;;;1.58;1.40;;;20.70;46.80;;;;;;5060514;28;21168;-53
2023/02/18 05:34:35;;;;;;;1.40;1.30;;;20.80;46.90;;;;;;5058431;28;20108;-53
2023/02/18 05:37:01;;;;;;;1.40;1.20;;;20.80;46.80;;;;;;5062748;28;20038;-50
2023/02/18 05:39:27;;;;;;;1.30;1.20;;;20.80;46.80;;;;;;5061754;28;20032;-51
2023/02/18 05:41:52;;;;;;;1.90;1.30;;;20.70;46.80;;;;;;5059315;28;20021;-49
2023/02/18 05:44:31;;;;;;;1.50;1.23;;;20.80;46.90;;;;;;5065134;28;20036;-56
2023/02/18 05:47:03;;;;;;;1.30;1.20;;;20.70;46.80;;;;;;5054944;28;20035;-52
2023/02/18 05:49:31;;;;;;;1.20;1.10;;;20.80;46.90;;;;;;5058004;28;20056;-49
2023/02/18 05:51:58;;;;;;;1.20;1.00;;;20.70;46.90;;;;;;5063443;28;20425;-52
2023/02/18 05:54:24;;;;;;;1.08;0.90;;;20.70;46.90;;;;;;5064245;28;20048;-47
2023/02/18 05:56:50;;;;;;;0.80;0.63;;;20.70;46.90;;;;;;5057137;28;20025;-48
2023/02/18 05:59:16;;;;;;;1.35;0.98;;;20.70;46.90;;;;;;5060299;28;20033;-50
2023/02/18 06:01:42;;;;;;;1.63;0.88;;;20.70;46.90;;;;;;5058419;28;20021;-52
2023/02/18 06:04:09;;;;;;;1.05;0.80;;;20.70;46.90;;;;;;5057851;28;20040;-52
2023/02/18 06:06:35;;;;;;;1.05;0.85;;;20.70;46.90;;;;;;5061821;28;20056;-54
2023/02/18 06:09:01;;;;;;;1.15;0.80;;;20.70;46.90;;;;;;5062253;28;20039;-53
2023/02/18 06:11:27;;;;;;;0.70;0.70;;;20.70;46.90;;;;;;5058826;28;20025;-48
2023/02/18 06:13:52;;;;;;;0.63;0.60;;;20.70;46.90;;;;;;5059789;28;20119;-47
2023/02/18 06:16:18;;;;;;;0.70;0.60;;;20.70;46.90;;;;;;5061746;28;20419;-51
2023/02/18 06:18:44;;;;;;;0.60;0.60;;;20.70;46.90;;;;;;5060038;28;20125;-48
2023/02/18 06:21:10;;;;;;;0.63;0.63;;;20.70;46.90;;;;;;5061848;28;20033;-49
2023/02/18 06:23:36;;;;;;;0.75;0.75;;;20.70;46.90;;;;;;5058448;28;20456;-52
2023/02/18 06:26:01;;;;;;;0.70;0.70;;;20.70;46.90;;;;;;5062329;28;20020;-53
2023/02/18 06:28:27;;;;;;;0.60;0.60;;;20.70;46.90;;;;;;5065408;28;20436;-51
2023/02/18 06:30:53;;;;;;;0.50;0.50;;;20.70;46.90;;;;;;5063399;28;20040;-52
2023/02/18 06:33:19;;;;;;;1.20;0.70;;;20.70;46.90;;;;;;5054717;28;20068;-49
2023/02/18 06:35:59;;;;;;;0.88;0.77;;;20.70;46.90;;;;;;5057764;28;20467;-48
2023/02/18 06:38:26;;;;;;;1.02;0.70;;;20.70;46.90;;;;;;5059301;28;20032;-50
2023/02/18 06:40:52;;;;;;;0.60;0.50;;;20.70;46.90;;;;;;5057907;28;20453;-51
2023/02/18 06:43:19;;;;;;;0.70;0.60;;;20.70;46.90;;;;;;5059583;28;20016;-52
2023/02/18 06:45:45;;;;;;;0.98;0.88;;;20.70;46.90;;;;;;5060481;28;20048;-50
2023/02/18 06:48:12;;;;;;;0.52;0.52;;;20.70;47.00;;;;;;5057824;28;20464;-51
2023/02/18 06:50:39;;;;;;;0.95;0.60;;;20.70;46.90;;;;;;5060638;28;20056;-53
2023/02/18 06:53:05;;;;;;;0.68;0.57;;;20.60;46.90;;;;;;5042267;28;20056;-50
2023/02/18 06:55:30;;;;;;;0.60;0.60;;;20.60;46.90;;;;;;5060860;28;20052;-51
2023/02/18 06:57:56;;;;;;;0.30;0.30;;;20.60;46.80;;;;;;5057311;28;20033;-55
2023/02/18 07:00:22;;;;;;;0.85;0.70;;;20.60;46.80;;;;;;5057505;28;20021;-51
2023/02/18 07:02:48;;;;;;;0.55;0.55;;;20.60;46.80;;;;;;5060185;28;20078;-53
2023/02/18 07:05:14;;;;;;;1.02;0.60;;;20.60;46.80;;;;;;5061811;28;20117;-49
2023/02/18 07:07:39;;;;;;;0.85;0.70;;;20.60;46.80;;;;;;5060378;28;20428;-49
2023/02/18 07:10:06;;;;;;;0.82;0.60;;;20.60;46.80;;;;;;5062548;28;20033;-51
2023/02/18 07:12:32;;;;;;;0.75;0.75;;;20.60;46.90;;;;;;5062369;28;20452;-54
2023/02/18 07:14:58;;;;;;;0.63;0.60;;;20.60;46.90;;;;;;5063722;28;20033;-53
2023/02/18 07:17:24;;;;;;;0.93;0.85;;;20.60;46.90;;;;;;5054548;28;20059;-51
2023/02/18 07:19:50;;;;;;;0.60;0.60;;;20.60;46.90;;;;;;5057048;28;20025;-52
2023/02/18 07:22:16;;;;;;;0.60;0.50;;;20.60;46.80;;;;;;5043067;28;20032;-50
2023/02/18 07:24:42;;;;;;;0.68;0.60;;;20.60;46.90;;;;;;5054882;28;20036;-50
2023/02/18 07:27:08;;;;;;;1.15;0.80;;;20.60;46.90;;;;;;5059765;28;20025;-50
2023/02/18 07:29:33;;;;;;;1.17;0.70;;;20.60;46.80;;;;;;5062079;28;20459;-53
2023/02/18 07:31:59;;;;;;;0.88;0.80;;;20.60;46.80;;;;;;5052495;28;20021;-48
2023/02/18 07:34:25;;;;;;;1.33;0.73;;;20.60;46.90;;;;;;5056557;28;20452;-52
2023/02/18 07:36:51;;;;;;;1.95;0.70;;;20.60;46.80;;;;;;5037585;28;20028;-51
2023/02/18 07:39:19;;;;;;;0.88;0.70;;;20.60;46.90;;;;;;5052218;28;20024;-50
2023/02/18 07:41:46;;;;;;;1.48;0.82;;;20.60;46.90;;;;;;5051718;28;20332;-52
2023/02/18 07:44:14;;;;;;;1.05;0.70;;;20.60;46.80;;;;;;5038636;28;20020;-53
2023/02/18 07:46:41;;;;;;;1.42;0.50;;;20.60;46.80;;;;;;5059112;28;20096;-54
2023/02/18 07:49:08;;;;;;;1.02;0.63;;;20.60;46.80;;;;;;5057059;28;20036;-49
2023/02/18 07:51:34;;;;;;;1.13;0.80;;;20.60;46.80;;;;;;5060745;28;20403;-52
2023/02/18 07:54:00;;;;;;;1.17;0.70;;;20.50;46.80;;;;;;5061501;28;20159;-53
2023/02/18 07:56:25;;;;;;;1.15;0.60;;;20.60;46.80;;;;;;5053808;28;20108;-49
2023/02/18 07:58:51;;;;;;;0.93;0.57;;;20.60;46.80;;;;;;5057203;28;20115;-51
2023/02/18 08:01:17;;;;;;;2.33;0.70;;;20.60;46.80;;;;;;5058186;28;20029;-51
2023/02/18 08:03:43;;;;;;;1.27;0.82;;;20.50;46.70;;;;;;5062964;28;20021;-51
2023/02/18 08:06:21;;;;;;;2.33;0.65;;;20.60;46.80;;;;;;5059828;28;20045;-53
2023/02/18 08:08:47;;;;;;;2.60;0.90;;;20.60;46.70;;;;;;5059798;28;20029;-52
2023/02/18 08:11:12;;;;;;;1.90;0.70;;;20.60;46.70;;;;;;5057823;28;20032;-50
2023/02/18 08:13:38;;;;;;;2.08;0.93;;;20.60;46.70;;;;;;5052827;28;20118;-53
2023/02/18 08:16:04;;;;;;;2.28;0.90;;;20.60;46.70;;;;;;5060563;28;20051;-50
2023/02/18 08:18:30;;;;;;;1.95;0.90;;;20.60;46.60;;;;;;5057772;28;20429;-50
2023/02/18 08:20:57;;;;;;;2.08;0.90;;;20.60;46.60;;;;;;5061950;28;20029;-52
2023/02/18 08:23:25;;;;;;;1.63;0.60;;;20.50;46.60;;;;;;5059375;28;20747;-54
2023/02/18 08:25:52;;;;;;;2.33;0.90;;;20.60;46.60;;;;;;5059163;28;20039;-49
2023/02/18 08:28:22;;;;;;;2.97;1.00;;;20.60;46.60;;;;;;5059814;28;20031;-49
2023/02/18 08:30:50;;;;;;;3.67;1.17;;;20.60;46.50;;;;;;5058912;28;20025;-50
2023/02/18 08:33:17;;;;;;;3.00;0.90;;;20.60;46.40;;;;;;5063085;28;20400;-51
2023/02/18 08:35:44;;;;;;;3.22;0.95;;;20.60;46.40;;;;;;5067272;28;20028;-52
2023/02/18 08:38:10;;;;;;;3.53;0.98;;;20.70;46.40;;;;;;5064884;28;20503;-54
2023/02/18 08:40:36;;;;;;;2.65;1.00;;;20.70;46.30;;;;;;5062094;28;20029;-53
2023/02/18 08:43:02;;;;;;;3.70;1.10;;;20.70;46.10;;;;;;5056533;28;20028;-48
2023/02/18 08:45:27;;;;;;;2.97;0.82;;;20.70;46.10;;;;;;5059378;28;20025;-48
2023/02/18 08:47:53;;;;;;;2.80;0.77;;;20.70;46.10;;;;;;5059945;28;20035;-53
2023/02/18 08:50:20;;;;;;;3.80;1.05;;;20.80;46.10;;;;;;5055642;28;20379;-49
2023/02/18 08:52:46;;;;;;;3.75;0.90;;;20.80;45.90;;;;;;5056371;28;20049;-52
2023/02/18 08:55:13;;;;;;;2.70;0.90;;;20.80;45.90;;;;;;5056043;28;20021;-52
2023/02/18 08:57:38;;;;;;;3.03;0.95;;;20.80;45.70;;;;;;5061146;28;20029;-54
2023/02/18 09:00:05;;;;;;;3.10;1.17;;;20.80;45.60;;;;;;5055503;28;20059;-54
2023/02/18 09:02:31;;;;;;;2.33;0.82;;;20.90;45.60;;;;;;5056052;28;20041;-53
2023/02/18 09:04:57;;;;;;;3.55;1.10;;;21.00;45.50;;;;;;5059065;28;20036;-50
2023/02/18 09:07:23;;;;;;;2.28;0.68;;;21.00;45.40;;;;;;5060469;28;20028;-50
2023/02/18 09:09:49;;;;;;;3.65;1.15;;;21.00;45.30;;;;;;5052985;28;20075;-47
2023/02/18 09:12:14;;;;;;;3.30;1.17;;;21.00;45.20;;;;;;5052733;28;20479;-50
2023/02/18 09:14:40;;;;;;;4.57;1.38;;;21.10;45.30;;;;;;5050638;28;20056;-53
2023/02/18 09:17:06;;;;;;;4.40;1.10;;;21.20;45.50;;;;;;5053380;28;20383;-51
2023/02/18 09:19:32;;;;;;;3.80;1.00;;;21.20;45.50;;;;;;5053350;28;20025;-50
2023/02/18 09:21:58;;;;;;;3.22;1.02;;;21.30;45.50;;;;;;5052310;28;20025;-51
2023/02/18 09:24:24;;;;;;;2.75;0.90;;;21.30;45.40;;;;;;5051292;28;20479;-54
2023/02/18 09:26:50;;;;;;;3.90;0.90;;;21.30;45.30;;;;;;5052439;28;20065;-54
2023/02/18 09:29:18;;;;;;;3.30;1.02;;;21.30;45.10;;;;;;5062806;28;20470;-51
2023/02/18 09:31:44;;;;;;;3.45;1.13;;;21.40;45.10;;;;;;5066197;28;20060;-49
2023/02/18 09:34:10;;;;;;;4.05;1.25;;;21.40;45.00;;;;;;5061762;28;20439;-48
2023/02/18 09:36:39;;;;;;;2.55;0.80;;;21.50;44.90;;;;;;5058487;28;20050;-52
2023/02/18 09:39:06;;;;;;;2.22;0.73;;;21.50;44.90;;;;;;5053448;28;20033;-53
2023/02/18 09:41:41;;;;;;;3.80;1.10;;;21.50;44.80;;;;;;5049976;28;20423;-50
2023/02/18 09:44:19;;;;;;;1.67;0.70;;;21.50;44.70;;;;;;5052939;28;20071;-48
2023/02/18 09:46:57;;;;;;;3.85;1.10;;;21.50;44.60;;;;;;5053113;28;20068;-53
2023/02/18 09:49:34;;;;;;;2.75;0.95;;;21.50;44.50;;;;;;5052092;28;20052;-48
2023/02/18 09:52:31;;;;;;;3.88;1.20;;;21.60;44.50;;;;;;5055345;28;20460;-49
2023/02/18 09:54:57;;;;;;;4.63;1.13;;;21.60;44.40;;;;;;5040682;28;20041;-50
2023/02/18 09:57:34;;;;;;;3.10;1.02;;;21.60;44.30;;;;;;5054277;28;20047;-46
2023/02/18 10:00:05;;;;;;;4.10;1.00;;;21.70;44.30;;;;;;5051065;28;20032;-49
2023/02/18 10:02:40;;;;;;;3.15;1.02;;;21.70;44.30;;;;;;5052286;28;20024;-54
2023/02/18 10:05:13;;;;;;;2.85;0.93;;;21.70;44.20;;;;;;5052487;28;20106;-53
2023/02/18 10:07:40;;;;;;;3.58;1.10;;;21.70;44.20;;;;;;5052908;28;20047;-48
2023/02/18 10:10:34;;;;;;;3.53;0.82;;;21.70;44.10;;;;;;5051763;28;20028;-52
2023/02/18 10:13:01;;;;;;;3.70;1.10;;;21.70;44.00;;;;;;5050504;28;20045;-50
2023/02/18 10:15:30;;;;;;;3.00;1.08;;;21.70;43.90;;;;;;5055559;28;20028;-48
2023/02/18 10:17:57;;;;;;;3.88;1.63;;;21.70;43.90;;;;;;5058017;28;20088;-54
2023/02/18 10:20:27;;;;;;;4.07;0.90;;;21.70;43.90;;;;;;5050937;28;20368;-48
2023/02/18 10:22:56;;;;;;;2.95;1.30;;;21.70;43.90;;;;;;5034815;28;20037;-49
2023/02/18 10:25:23;;;;;;;2.83;1.23;;;21.80;44.00;;;;;;5058118;28;20048;-51
2023/02/18 10:27:52;;;;;;;2.92;0.93;;;21.80;44.00;;;;;;5055616;28;20037;-53
2023/02/18 10:30:21;;;;;;;3.72;1.05;;;21.80;43.90;;;;;;5050496;28;20025;-50
2023/02/18 10:32:50;;;;;;;3.40;1.10;;;21.80;43.80;;;;;;5050736;28;20357;-53
2023/02/18 10:35:42;;;;;;;3.08;1.10;;;21.80;43.70;;;;;;5049666;28;20056;-52
2023/02/18 10:38:23;;;;;;;3.10;1.05;;;21.80;43.90;;;;;;5051813;28;20092;-51
2023/02/18 10:41:20;;;;;;;2.90;1.00;;;21.80;44.10;;;;;;5062221;28;20024;-54
2023/02/18 10:44:14;;;;;;;3.05;1.02;;;21.80;44.20;;;;;;5057893;28;20043;-51
2023/02/18 10:47:15;;;;;;;3.08;1.10;;;21.80;44.30;;;;;;5038240;28;20071;-52
2023/02/18 10:49:57;;;;;;;2.63;0.90;;;21.80;44.40;;;;;;5060689;28;20036;-51
2023/02/18 10:52:26;;;;;;;4.57;1.00;;;21.80;44.40;;;;;;5056917;28;20083;-47
2023/02/18 10:54:59;;;;;;;2.60;0.90;;;21.80;44.40;;;;;;5058106;28;20367;-51
2023/02/18 10:57:25;;;;;;;2.72;1.13;;;21.90;44.50;;;;;;5059094;28;20592;-48
2023/02/18 10:59:57;;;;;;;3.22;1.13;;;21.90;44.40;;;;;;5054438;28;20336;-48
2023/02/18 11:02:29;;;;;;;3.90;1.00;;;21.90;44.40;;;;;;5054316;28;20028;-49
2023/02/18 11:04:57;;;;;;;4.18;1.20;;;21.90;44.40;;;;;;5055794;28;20051;-49
2023/02/18 11:07:32;;;;;;;3.38;0.90;;;21.80;44.30;;;;;;5054524;28;20441;-49
2023/02/18 11:10:07;;;;;;;3.15;1.20;;;21.90;44.40;;;;;;5055703;28;20024;-53
2023/02/18 11:12:46;;;;;;;3.08;1.30;;;21.90;44.40;;;;;;5058614;28;20048;-53
2023/02/18 11:15:24;;;;;;;3.72;1.17;;;21.90;44.40;;;;;;5054173;28;20119;-54
2023/02/18 11:17:53;;;;;;;2.17;0.98;;;21.90;44.40;;;;;;5016669;28;20323;-49
2023/02/18 11:20:35;;;;;;;2.08;1.00;;;21.90;44.40;;;;;;5019489;28;20049;-50
2023/02/18 11:23:07;;;;;;;4.05;1.10;;;21.90;44.50;;;;;;5018800;28;20025;-49
2023/02/18 11:25:35;;;;;;;2.78;0.85;;;21.90;44.60;;;;;;5021295;28;20041;-51
2023/02/18 11:28:16;;;;;;;3.60;1.23;;;21.90;44.70;;;;;;5016909;28;20135;-50
2023/02/18 11:30:45;;;;;;;7.40;1.10;;;21.90;44.70;;;;;;5024032;28;20033;-54
2023/02/18 11:33:30;;;;;;;2.28;0.75;;;21.90;44.80;;;;;;5021028;28;20040;-52
2023/02/18 11:36:02;;;;;;;3.17;1.00;;;21.90;44.80;;;;;;5018882;28;20033;-52
2023/02/18 11:38:46;;;;;;;2.53;0.90;;;21.90;44.80;;;;;;5019986;28;20022;-55
2023/02/18 11:41:27;;;;;;;4.13;1.30;;;22.00;44.80;;;;;;5020354;28;20025;-56
2023/02/18 11:43:53;;;;;;;2.53;0.82;;;21.90;44.90;;;;;;5023197;28;20030;-57
2023/02/18 11:46:22;;;;;;;2.78;1.10;;;21.90;45.00;;;;;;5018571;28;20053;-57
2023/02/18 11:48:49;;;;;;;4.35;0.88;;;22.00;45.10;;;;;;5015539;28;20029;-55
2023/02/18 11:51:27;;;;;;;1.98;1.02;;;22.00;45.10;;;;;;5018735;28;20319;-58
2023/02/18 11:54:00;;;;;;;3.50;1.00;;;22.10;45.00;;;;;;5019712;28;20068;-58
2023/02/18 11:56:32;;;;;;;2.92;1.05;;;22.20;44.90;;;;;;5020609;28;20048;-56
2023/02/18 11:59:00;;;;;;;3.80;1.08;;;22.30;44.80;;;;;;5015845;28;20079;-58
2023/02/18 12:01:49;;;;;;;4.22;1.20;;;22.40;44.70;;;;;;5013826;28;20083;-52
2023/02/18 12:04:17;;;;;;;3.22;1.02;;;22.50;44.60;;;;;;5014497;28;20033;-59
2023/02/18 12:06:54;;;;;;;2.90;1.00;;;22.60;44.40;;;;;;5019071;28;20038;-56
2023/02/18 12:09:27;;;;;;;3.38;1.10;;;22.70;44.30;;;;;;5014595;28;20113;-57
2023/02/18 12:12:00;;;;;;;7.18;1.85;;;22.80;44.10;;;;;;5021874;28;20053;-56
2023/02/18 12:14:26;;;;;;;4.75;1.27;;;22.90;44.00;;;;;;5023355;28;20034;-56
2023/02/18 12:17:20;;;;;;;3.38;1.30;;;23.00;43.60;;;;;;5043007;28;20041;-58
2023/02/18 12:19:49;;;;;;;4.50;1.13;;;23.10;43.30;;;;;;5060529;28;20143;-59
2023/02/18 12:22:33;;;;;;;4.00;1.30;;;23.20;43.00;;;;;;5043928;28;20291;-60
2023/02/18 12:25:13;;;;;;;4.32;1.35;;;23.20;42.70;;;;;;5060944;28;20116;-59
2023/02/18 12:28:02;;;;;;;5.47;1.73;;;23.30;42.40;;;;;;5057523;28;20040;-58
2023/02/18 12:30:43;;;;;;;4.20;1.45;;;23.30;42.30;;;;;;5055147;28;20043;-57
2023/02/18 12:33:27;;;;;;;2.63;1.10;;;23.40;42.50;;;;;;5062128;28;20060;-56
2023/02/18 12:35:59;;;;;;;;;;;23.40;42.40;;;;;;5059532;28;20040;-55
2023/02/18 12:38:40;;;;;;;2.40;0.90;;;23.40;42.30;;;;;;5054861;28;19908;-55
2023/02/18 12:41:31;;;;;;;4.63;1.25;;;23.40;42.10;;;;;;5058493;28;20032;-57
2023/02/18 12:44:33;;;;;;;4.95;1.10;;;23.40;41.90;;;;;;5053843;28;20165;-56
2023/02/18 12:47:16;;;;;;;3.83;1.25;;;23.40;41.70;;;;;;5062264;28;20059;-56
2023/02/18 12:49:54;;;;;;;4.03;1.45;;;23.40;41.60;;;;;;5060459;28;20021;-54
2023/02/18 12:53:03;;;;;;;4.13;1.40;;;23.40;41.50;;;;;;5061798;28;20059;-55
2023/02/18 12:55:38;;;;;;;5.72;1.25;;;23.40;41.30;;;;;;5056663;28;20329;-55
2023/02/18 12:58:28;;;;;;;6.13;1.42;;;23.40;41.30;;;;;;5056707;28;20013;-56
2023/02/18 13:01:08;;;;;;;5.15;1.50;;;23.40;41.20;;;;;;5059033;28;20111;-56
2023/02/18 13:04:05;;;;;;;4.03;1.17;;;23.40;41.20;;;;;;5061633;28;20149;-57
2023/02/18 13:07:10;;;;;;;6.40;1.48;;;23.40;41.20;;;;;;5057856;28;20052;-55